Terminal Aerodrome Forecast
Issued by NWS Cleveland, OH

Home | Current Version | Previous Version | Graphics & Text | Print | Product List | Glossary On
Versions: 1 2 3 4 5 6 7 8 9 10 11 12 13 14 15 16 17
000
FTUS41 KCLE 192329
TAFYNG
TAF
KYNG 192329Z 2000/2024 10005KT P6SM SCT040 BKN100
     FM200600 14003KT 4SM BR SCT040 OVC080
     FM201000 17003KT 1 1/2SM BR SCT003 BKN100
      TEMPO 2010/2013 1/2SM FG BKN003
     FM201400 23005KT 4SM BR BKN012
     FM201500 23005KT P6SM BKN050
     FM202300 01004KT P6SM SCT035 BKN080=

USA.gov is the U.S. government's official web portal to all federal, state and local government web resources and services.